Terminal Aerodrome Forecast
Issued by NWS

Home | Current Version | Previous Version | Text Only | Print | Product List | Glossary On
Versions: 1 2 3 4 5 6 7 8 9 10 11 12 13
000
FTUS42 TJSJ 252343
TAFJPS
TAF
TJPS 252343Z 2600/2624 05005KT P6SM SCT060
     FM261330 13010G18KT P6SM FEW030 SCT050
     FM262330 05005KT P6SM SKC
      AMD NOT SKED TIL 260300=

USA.gov is the U.S. government's official web portal to all federal, state and local government web resources and services.